createdAt,value
2023-05-04T00:00:23.478Z,5.86
2023-05-04T00:02:40.909Z,5.86
2023-05-04T00:04:58.206Z,5.81
2023-05-04T00:07:15.485Z,5.77
2023-05-04T00:09:32.759Z,5.73
2023-05-04T00:11:49.979Z,5.73
2023-05-04T00:14:07.212Z,5.71
2023-05-04T00:16:24.438Z,5.69
2023-05-04T00:18:41.665Z,5.66
2023-05-04T00:20:58.950Z,5.63
2023-05-04T00:23:16.299Z,5.63
2023-05-04T00:25:33.483Z,5.63
2023-05-04T00:27:50.846Z,5.62
2023-05-04T00:30:08.091Z,5.59
2023-05-04T00:32:25.319Z,5.56
2023-05-04T00:34:42.322Z,5.49
2023-05-04T00:36:59.631Z,5.47
2023-05-04T00:39:16.834Z,5.44
2023-05-04T00:41:34.094Z,5.42
2023-05-04T00:43:51.390Z,5.39
2023-05-04T00:46:08.949Z,5.37
2023-05-04T00:48:26.115Z,5.36
2023-05-04T00:50:43.019Z,5.34
2023-05-04T00:53:02.481Z,5.34
2023-05-04T00:55:19.781Z,5.33
2023-05-04T00:57:37.542Z,5.27
2023-05-04T00:59:55.747Z,5.21
2023-05-04T01:02:13.072Z,5.17
2023-05-04T01:04:30.407Z,5.14
2023-05-04T01:06:47.749Z,5.11
2023-05-04T01:09:04.985Z,5.13
2023-05-04T01:11:22.212Z,5.09
2023-05-04T01:13:40.504Z,5.07
2023-05-04T01:15:57.718Z,5.06
2023-05-04T01:18:16.075Z,5.08
2023-05-04T01:20:33.722Z,5.05
2023-05-04T01:22:51.005Z,4.98
2023-05-04T01:25:08.330Z,4.94
2023-05-04T01:27:26.295Z,4.92
2023-05-04T01:29:43.637Z,4.91
2023-05-04T01:32:00.951Z,4.93
2023-05-04T01:34:18.237Z,4.94
2023-05-04T01:36:35.947Z,4.97
2023-05-04T01:38:53.787Z,4.96
2023-05-04T01:41:11.089Z,4.91
2023-05-04T01:43:28.329Z,4.88
2023-05-04T01:45:45.960Z,4.84
2023-05-04T01:48:04.238Z,4.81
2023-05-04T01:50:21.526Z,4.79
2023-05-04T01:52:38.758Z,4.70
2023-05-04T01:54:56.427Z,4.67
2023-05-04T01:57:13.641Z,4.62
2023-05-04T01:59:30.933Z,4.61
2023-05-04T02:01:48.272Z,4.61
2023-05-04T02:04:05.270Z,4.62
2023-05-04T02:06:22.503Z,4.63
2023-05-04T02:08:39.760Z,4.61
2023-05-04T02:10:57.345Z,4.63
2023-05-04T02:13:14.707Z,4.60
2023-05-04T02:15:32.434Z,4.58
2023-05-04T02:17:49.805Z,4.58
2023-05-04T02:20:07.334Z,4.57
2023-05-04T02:22:24.889Z,4.55
2023-05-04T02:24:42.465Z,4.50
2023-05-04T02:27:00.800Z,4.46
2023-05-04T02:29:18.087Z,4.44
2023-05-04T02:31:36.345Z,4.38
2023-05-04T02:33:53.836Z,4.34
2023-05-04T02:36:13.937Z,4.31
2023-05-04T02:38:33.607Z,4.27
2023-05-04T02:40:50.823Z,4.25
2023-05-04T02:43:08.028Z,4.22
2023-05-04T02:45:25.034Z,4.19
2023-05-04T02:47:42.757Z,4.18
2023-05-04T02:49:59.983Z,4.17
2023-05-04T02:52:19.735Z,4.18
2023-05-04T02:54:37.038Z,4.18
2023-05-04T02:56:54.307Z,4.16
2023-05-04T02:59:11.650Z,4.13
2023-05-04T03:01:28.964Z,4.11
2023-05-04T03:03:46.336Z,4.08
2023-05-04T03:06:03.397Z,4.08
2023-05-04T03:08:21.031Z,4.08
2023-05-04T03:10:39.004Z,4.03
2023-05-04T03:12:56.856Z,4.02
2023-05-04T03:15:14.122Z,4.03
2023-05-04T03:17:31.044Z,4.05
2023-05-04T03:19:48.389Z,4.06
2023-05-04T03:22:05.429Z,4.08
2023-05-04T03:24:23.610Z,4.11
2023-05-04T03:26:40.903Z,4.10
2023-05-04T03:28:58.972Z,4.07
2023-05-04T03:31:16.412Z,4.05
2023-05-04T03:33:33.803Z,4.06
2023-05-04T03:35:51.073Z,4.06
2023-05-04T03:38:08.338Z,4.04
2023-05-04T03:40:26.658Z,4.01
2023-05-04T03:42:43.815Z,3.96
2023-05-04T03:45:03.716Z,3.93
2023-05-04T03:47:21.886Z,3.90
2023-05-04T03:49:41.409Z,3.89
2023-05-04T03:51:59.103Z,3.86
2023-05-04T03:54:16.495Z,3.82
2023-05-04T03:56:34.825Z,3.81
2023-05-04T03:58:52.078Z,3.81
2023-05-04T04:01:09.760Z,3.79
2023-05-04T04:03:28.744Z,3.77
2023-05-04T04:05:45.921Z,3.77
2023-05-04T04:08:05.569Z,3.74
2023-05-04T04:10:22.771Z,3.71
2023-05-04T04:12:40.146Z,3.71
2023-05-04T04:14:57.471Z,3.70
2023-05-04T04:17:15.802Z,3.73
2023-05-04T04:19:33.019Z,3.72
2023-05-04T04:21:50.459Z,3.72
2023-05-04T04:24:07.774Z,3.74
2023-05-04T04:26:25.170Z,3.69
2023-05-04T04:28:42.416Z,3.67
2023-05-04T04:30:59.689Z,3.66
2023-05-04T04:33:17.082Z,3.66
2023-05-04T04:35:34.932Z,3.67
2023-05-04T04:37:52.242Z,3.69
2023-05-04T04:40:09.558Z,3.71
2023-05-04T04:42:26.502Z,3.75
2023-05-04T04:44:43.857Z,3.75
2023-05-04T04:47:01.282Z,3.75
2023-05-04T04:49:19.025Z,3.80
2023-05-04T04:51:37.238Z,3.83
2023-05-04T04:53:54.551Z,3.86
2023-05-04T04:56:12.328Z,3.90
2023-05-04T04:58:29.254Z,3.94
2023-05-04T05:00:46.550Z,3.96
2023-05-04T05:03:03.976Z,3.97
2023-05-04T05:05:21.290Z,3.98
2023-05-04T05:07:38.575Z,4.02
2023-05-04T05:09:56.812Z,4.08
2023-05-04T05:12:13.758Z,4.20
2023-05-04T05:14:30.726Z,4.24
2023-05-04T05:16:48.118Z,4.26
2023-05-04T05:19:08.296Z,4.30
2023-05-04T05:21:25.273Z,4.34
2023-05-04T05:23:45.085Z,4.37
2023-05-04T05:26:03.390Z,4.47
2023-05-04T05:28:20.890Z,4.53
2023-05-04T05:30:38.425Z,4.55
2023-05-04T05:32:55.577Z,4.57
2023-05-04T05:35:13.221Z,4.60
2023-05-04T05:37:30.139Z,4.65
2023-05-04T05:39:47.257Z,4.71
2023-05-04T05:42:04.573Z,4.77
2023-05-04T05:44:21.916Z,4.88
2023-05-04T05:46:39.791Z,4.95
2023-05-04T05:48:57.600Z,5.01
2023-05-04T05:51:14.690Z,5.06
2023-05-04T05:53:33.374Z,5.10
2023-05-04T05:55:51.995Z,5.17
2023-05-04T05:58:12.612Z,5.24
2023-05-04T06:00:32.404Z,5.32
2023-05-04T06:02:50.441Z,5.43
2023-05-04T06:05:08.143Z,5.55
2023-05-04T06:07:25.776Z,5.72
2023-05-04T06:09:43.756Z,5.90
2023-05-04T06:12:00.708Z,6.09
2023-05-04T06:14:17.906Z,6.22
2023-05-04T06:16:35.318Z,6.30
2023-05-04T06:18:52.376Z,6.39
2023-05-04T06:21:09.372Z,6.47
2023-05-04T06:23:27.791Z,6.57
2023-05-04T06:25:45.640Z,6.68
2023-05-04T06:28:03.937Z,6.84
2023-05-04T06:30:21.319Z,7.03
2023-05-04T06:32:39.664Z,7.22
2023-05-04T06:34:56.999Z,7.42
2023-05-04T06:37:16.147Z,7.63
2023-05-04T06:39:33.644Z,7.86
2023-05-04T06:41:50.536Z,8.07
2023-05-04T06:44:07.674Z,8.25
2023-05-04T06:46:25.468Z,8.49
2023-05-04T06:48:42.836Z,8.69
2023-05-04T06:51:01.571Z,8.90
2023-05-04T06:53:20.235Z,9.09
2023-05-04T06:55:37.176Z,9.30
2023-05-04T06:57:54.218Z,9.57
2023-05-04T07:00:11.169Z,9.78
2023-05-04T07:02:28.511Z,10.02
2023-05-04T07:04:45.817Z,10.24
2023-05-04T07:07:03.049Z,10.48
2023-05-04T07:09:21.274Z,10.68
2023-05-04T07:11:38.653Z,10.90
2023-05-04T07:13:56.181Z,11.08
2023-05-04T07:16:13.497Z,11.25
2023-05-04T07:18:30.507Z,11.40
2023-05-04T07:20:47.960Z,11.50
2023-05-04T07:23:05.262Z,11.65
2023-05-04T07:25:22.952Z,11.80
2023-05-04T07:27:40.299Z,11.90
2023-05-04T07:29:58.253Z,12.07
2023-05-04T07:32:15.624Z,12.10
2023-05-04T07:34:44.561Z,12.24
2023-05-04T07:37:02.755Z,12.39
2023-05-04T07:39:20.767Z,12.54
2023-05-04T07:41:38.113Z,12.67
2023-05-04T07:43:55.414Z,12.82
2023-05-04T07:46:12.364Z,12.93
2023-05-04T07:48:29.654Z,13.08
2023-05-04T07:50:47.276Z,13.17
2023-05-04T07:53:07.699Z,13.22
2023-05-04T07:55:24.645Z,13.35
2023-05-04T07:57:42.550Z,13.49
2023-05-04T07:59:59.815Z,13.69
2023-05-04T08:02:17.137Z,13.82
2023-05-04T08:04:34.582Z,13.87
2023-05-04T08:06:52.269Z,14.00
2023-05-04T08:09:09.591Z,14.10
2023-05-04T08:11:26.953Z,14.27
2023-05-04T08:13:44.284Z,14.40
2023-05-04T08:16:02.308Z,14.52
2023-05-04T08:18:19.566Z,14.60
2023-05-04T08:20:36.906Z,14.68
2023-05-04T08:22:55.296Z,14.78
2023-05-04T08:25:12.680Z,14.93
2023-05-04T08:27:32.486Z,15.05
2023-05-04T08:29:49.832Z,15.09
2023-05-04T08:32:08.158Z,15.16
2023-05-04T08:34:25.291Z,15.14
2023-05-04T08:36:43.597Z,15.17
2023-05-04T08:39:02.012Z,15.27
2023-05-04T08:41:19.801Z,15.31
2023-05-04T08:43:37.146Z,15.48
2023-05-04T08:45:54.146Z,15.63
2023-05-04T08:48:11.519Z,15.78
2023-05-04T08:50:29.584Z,15.89
2023-05-04T08:52:48.016Z,16.02
2023-05-04T08:55:06.779Z,16.13
2023-05-04T08:57:24.268Z,16.14
2023-05-04T08:59:41.509Z,16.30
2023-05-04T09:01:59.821Z,16.32
2023-05-04T09:04:16.899Z,16.45
2023-05-04T09:06:34.231Z,16.47
2023-05-04T09:08:53.611Z,16.55
2023-05-04T09:11:10.952Z,16.62
2023-05-04T09:13:28.316Z,16.64
2023-05-04T09:15:46.673Z,16.66
2023-05-04T09:18:04.035Z,16.79
2023-05-04T09:20:21.133Z,16.78
2023-05-04T09:22:38.477Z,16.93
2023-05-04T09:24:55.794Z,17.04
2023-05-04T09:27:13.528Z,17.18
2023-05-04T09:29:31.857Z,17.36
2023-05-04T09:31:49.487Z,17.48
2023-05-04T09:34:06.652Z,17.62
2023-05-04T09:36:24.058Z,17.79
2023-05-04T09:38:41.840Z,17.91
2023-05-04T09:40:59.075Z,17.97
2023-05-04T09:43:17.214Z,18.03
2023-05-04T09:45:34.528Z,18.15
2023-05-04T09:47:52.518Z,18.24
2023-05-04T09:50:11.565Z,18.14
2023-05-04T09:52:28.923Z,18.20
2023-05-04T09:54:46.258Z,18.15
2023-05-04T09:57:03.900Z,18.19
2023-05-04T09:59:21.122Z,18.35
2023-05-04T10:01:39.795Z,18.43
2023-05-04T10:03:57.861Z,18.65
2023-05-04T10:06:15.229Z,18.70
2023-05-04T10:08:32.466Z,18.70
2023-05-04T10:10:50.876Z,18.94
2023-05-04T10:13:08.597Z,19.12
2023-05-04T10:15:25.745Z,19.30
2023-05-04T10:17:43.475Z,19.38
2023-05-04T10:20:01.141Z,19.27
2023-05-04T10:22:18.364Z,19.45
2023-05-04T10:24:35.437Z,19.65
2023-05-04T10:26:53.054Z,19.69
2023-05-04T10:29:10.390Z,19.82
2023-05-04T10:31:27.358Z,19.81
2023-05-04T10:33:44.774Z,19.83
2023-05-04T10:36:03.108Z,19.87
2023-05-04T10:38:20.316Z,20.18
2023-05-04T10:40:37.227Z,20.44
2023-05-04T10:42:54.465Z,20.56
2023-05-04T10:45:12.439Z,20.57
2023-05-04T10:47:29.695Z,20.51
2023-05-04T10:49:47.382Z,20.58
2023-05-04T10:52:04.683Z,20.63
2023-05-04T10:54:21.999Z,20.67
2023-05-04T10:56:40.112Z,20.71
2023-05-04T10:58:57.397Z,20.69
2023-05-04T11:01:15.115Z,20.70
2023-05-04T11:03:32.833Z,20.80
2023-05-04T11:05:50.251Z,21.19
2023-05-04T11:08:07.604Z,21.32
2023-05-04T11:10:25.340Z,21.36
2023-05-04T11:12:42.282Z,21.57
2023-05-04T11:14:59.561Z,21.66
2023-05-04T11:17:27.659Z,21.55
2023-05-04T11:19:45.418Z,21.71
2023-05-04T11:22:03.133Z,21.86
2023-05-04T11:24:20.084Z,21.80
2023-05-04T11:26:37.713Z,21.85
2023-05-04T11:28:56.053Z,21.75
2023-05-04T11:31:13.391Z,21.81
2023-05-04T11:33:30.698Z,21.73
2023-05-04T11:35:47.729Z,21.86
2023-05-04T11:38:05.081Z,21.95
2023-05-04T11:40:22.399Z,21.95
2023-05-04T11:42:42.149Z,22.00
2023-05-04T11:44:59.653Z,22.09
2023-05-04T11:47:17.884Z,22.01
2023-05-04T11:49:35.656Z,22.24
2023-05-04T11:51:52.954Z,22.39
2023-05-04T11:54:10.716Z,22.43
2023-05-04T11:56:28.093Z,22.50
2023-05-04T11:58:45.374Z,22.62
2023-05-04T12:01:02.649Z,22.82
2023-05-04T12:03:20.053Z,22.82
2023-05-04T12:05:37.561Z,22.94
2023-05-04T12:07:54.936Z,23.01
2023-05-04T12:10:13.304Z,23.17
2023-05-04T12:12:32.316Z,23.17
2023-05-04T12:14:51.348Z,23.14
2023-05-04T12:17:08.707Z,23.21
2023-05-04T12:19:26.071Z,22.99
2023-05-04T12:21:43.225Z,23.08
2023-05-04T12:24:00.620Z,23.14
2023-05-04T12:26:19.616Z,23.14
2023-05-04T12:28:36.945Z,23.22
2023-05-04T12:30:54.645Z,23.12
2023-05-04T12:33:11.758Z,23.22
2023-05-04T12:35:28.853Z,23.41
2023-05-04T12:37:46.167Z,23.36
2023-05-04T12:40:04.378Z,23.34
2023-05-04T12:42:22.869Z,23.50
2023-05-04T12:44:40.108Z,23.60
2023-05-04T12:46:57.791Z,23.68
2023-05-04T12:49:15.774Z,23.82
2023-05-04T12:51:33.060Z,24.08
2023-05-04T12:53:50.386Z,24.17
2023-05-04T12:56:07.680Z,24.23
2023-05-04T12:58:25.030Z,24.28
2023-05-04T13:00:43.344Z,24.18
2023-05-04T13:03:02.574Z,23.96
2023-05-04T13:05:19.637Z,23.95
2023-05-04T13:07:36.620Z,24.20
2023-05-04T13:09:53.945Z,24.34
2023-05-04T13:12:11.246Z,24.37
2023-05-04T13:14:28.234Z,24.51
2023-05-04T13:16:45.154Z,24.69
2023-05-04T13:19:02.923Z,24.78
2023-05-04T13:21:20.964Z,24.77
2023-05-04T13:23:38.243Z,24.73
2023-05-04T13:25:55.586Z,24.52
2023-05-04T13:28:12.930Z,24.50
2023-05-04T13:30:31.198Z,24.56
2023-05-04T13:32:48.387Z,24.35
2023-05-04T13:35:05.771Z,24.45
2023-05-04T13:37:23.074Z,24.14
2023-05-04T13:39:41.216Z,24.22
2023-05-04T13:41:58.897Z,24.15
2023-05-04T13:44:15.879Z,24.25
2023-05-04T13:46:32.934Z,24.31
2023-05-04T13:48:50.324Z,24.37
2023-05-04T13:51:08.281Z,24.30
2023-05-04T13:53:25.312Z,24.26
2023-05-04T13:55:42.275Z,24.15
2023-05-04T13:57:59.394Z,24.06
2023-05-04T14:00:17.990Z,23.97
2023-05-04T14:02:35.724Z,23.87
2023-05-04T14:04:53.287Z,23.87
2023-05-04T14:07:10.215Z,23.83
2023-05-04T14:09:28.300Z,23.89
2023-05-04T14:11:45.592Z,23.95
2023-05-04T14:14:03.942Z,24.11
2023-05-04T14:16:22.182Z,24.23
2023-05-04T14:18:39.398Z,24.28
2023-05-04T14:20:56.704Z,24.37
2023-05-04T14:23:13.759Z,24.48
2023-05-04T14:25:31.111Z,24.62
2023-05-04T14:27:48.128Z,24.64
2023-05-04T14:30:05.403Z,24.63
2023-05-04T14:32:22.736Z,24.61
2023-05-04T14:34:41.029Z,24.54
2023-05-04T14:36:58.097Z,24.70
2023-05-04T14:39:15.826Z,24.71
2023-05-04T14:41:33.125Z,24.81
2023-05-04T14:43:50.410Z,24.81
2023-05-04T14:46:07.701Z,24.90
2023-05-04T14:48:24.932Z,24.84
2023-05-04T14:50:41.901Z,25.03
2023-05-04T14:52:59.188Z,25.18
2023-05-04T14:55:17.458Z,25.34
2023-05-04T14:57:35.102Z,25.27
2023-05-04T14:59:53.426Z,25.01
2023-05-04T15:02:10.743Z,24.86
2023-05-04T15:04:28.441Z,24.61
2023-05-04T15:06:45.954Z,24.63
2023-05-04T15:09:03.253Z,24.59
2023-05-04T15:11:20.536Z,24.42
2023-05-04T15:13:37.972Z,24.36
2023-05-04T15:15:56.328Z,24.16
2023-05-04T15:18:14.204Z,24.24
2023-05-04T15:20:32.605Z,24.28
2023-05-04T15:22:50.389Z,24.31
2023-05-04T15:25:08.467Z,24.35
2023-05-04T15:27:25.776Z,24.34
2023-05-04T15:29:43.097Z,24.34
2023-05-04T15:32:00.234Z,24.44
2023-05-04T15:34:18.612Z,24.48
2023-05-04T15:36:35.820Z,24.60
2023-05-04T15:38:53.463Z,24.66
2023-05-04T15:41:10.754Z,24.69
2023-05-04T15:43:28.056Z,24.71
2023-05-04T15:45:45.029Z,24.86
2023-05-04T15:48:02.719Z,24.85
2023-05-04T15:50:20.054Z,24.79
2023-05-04T15:52:37.368Z,24.80
2023-05-04T15:54:54.323Z,24.88
2023-05-04T15:57:11.306Z,24.89
2023-05-04T15:59:28.286Z,25.04
2023-05-04T16:01:45.707Z,25.01
2023-05-04T16:04:03.132Z,24.85
2023-05-04T16:06:21.733Z,24.71
2023-05-04T16:08:40.408Z,24.70
2023-05-04T16:10:57.669Z,24.66
2023-05-04T16:13:14.797Z,24.56
2023-05-04T16:15:31.928Z,24.37
2023-05-04T16:17:49.372Z,24.42
2023-05-04T16:20:07.172Z,24.40
2023-05-04T16:22:24.438Z,24.41
2023-05-04T16:24:41.687Z,24.42
2023-05-04T16:26:58.655Z,24.35
2023-05-04T16:29:15.962Z,24.33
2023-05-04T16:31:33.385Z,24.30
2023-05-04T16:33:50.685Z,24.26
2023-05-04T16:36:07.629Z,24.25
2023-05-04T16:38:24.677Z,24.13
2023-05-04T16:40:42.355Z,24.08
2023-05-04T16:42:59.323Z,24.10
2023-05-04T16:45:16.454Z,24.14
2023-05-04T16:47:33.710Z,24.02
2023-05-04T16:49:51.026Z,23.93
2023-05-04T16:52:09.323Z,23.87
2023-05-04T16:54:26.641Z,23.75
2023-05-04T16:56:43.977Z,23.65
2023-05-04T16:59:01.735Z,23.44
2023-05-04T17:01:18.674Z,23.29
2023-05-04T17:03:36.019Z,23.01
2023-05-04T17:05:53.393Z,22.88
2023-05-04T17:08:11.636Z,22.80
2023-05-04T17:10:28.881Z,22.82
2023-05-04T17:12:46.222Z,22.81
2023-05-04T17:15:03.280Z,22.80
2023-05-04T17:17:20.796Z,22.77
2023-05-04T17:19:38.090Z,22.73
2023-05-04T17:21:56.325Z,22.69
2023-05-04T17:24:13.931Z,22.59
2023-05-04T17:28:48.657Z,22.19
2023-05-04T17:31:06.679Z,21.93
2023-05-04T17:33:24.005Z,21.75
2023-05-04T17:35:41.369Z,21.55
2023-05-04T17:37:59.171Z,21.37
2023-05-04T17:40:16.556Z,21.21
2023-05-04T17:42:34.061Z,21.07
2023-05-04T17:44:52.431Z,20.94
2023-05-04T17:47:10.033Z,20.81
2023-05-04T17:49:26.869Z,20.70
2023-05-04T17:51:44.097Z,20.61
2023-05-04T17:54:01.774Z,20.49
2023-05-04T17:56:19.071Z,20.37
2023-05-04T17:58:36.311Z,20.29
2023-05-04T18:00:53.394Z,20.23
2023-05-04T18:03:10.866Z,20.16
2023-05-04T18:05:28.937Z,20.08
2023-05-04T18:07:46.188Z,19.96
2023-05-04T18:10:03.424Z,19.83
2023-05-04T18:12:21.116Z,19.69
2023-05-04T18:14:38.429Z,19.57
2023-05-04T18:16:56.642Z,19.42
2023-05-04T18:19:14.246Z,19.31
2023-05-04T18:21:31.564Z,19.24
2023-05-04T18:23:48.877Z,19.14
2023-05-04T18:26:06.160Z,19.01
2023-05-04T18:28:23.084Z,18.89
2023-05-04T18:30:41.340Z,18.77
2023-05-04T18:32:58.704Z,18.68
2023-05-04T18:35:15.624Z,18.59
2023-05-04T18:37:32.832Z,18.50
2023-05-04T18:39:50.192Z,18.41
2023-05-04T18:42:07.446Z,18.34
2023-05-04T18:44:24.786Z,18.27
2023-05-04T18:46:42.104Z,18.17
2023-05-04T18:49:00.390Z,18.09
2023-05-04T18:51:17.594Z,18.03
2023-05-04T18:53:34.638Z,17.94
2023-05-04T18:55:51.901Z,17.85
2023-05-04T18:58:10.183Z,17.73
2023-05-04T19:00:27.484Z,17.62
2023-05-04T19:02:44.848Z,17.52
2023-05-04T19:05:02.085Z,17.41
2023-05-04T19:07:19.004Z,17.33
2023-05-04T19:09:36.265Z,17.22
2023-05-04T19:11:53.560Z,17.12
2023-05-04T19:14:11.006Z,17.04
2023-05-04T19:16:29.382Z,16.95
2023-05-04T19:18:47.681Z,16.85
2023-05-04T19:21:04.954Z,16.80
2023-05-04T19:23:22.244Z,16.72
2023-05-04T19:25:40.625Z,16.65
2023-05-04T19:27:57.613Z,16.59
2023-05-04T19:30:14.993Z,16.53
2023-05-04T19:32:33.429Z,16.45
2023-05-04T19:34:50.732Z,16.38
2023-05-04T19:37:07.992Z,16.34
2023-05-04T19:39:25.007Z,16.29
2023-05-04T19:41:42.245Z,16.21
2023-05-04T19:43:59.961Z,16.13
2023-05-04T19:46:18.189Z,16.10
2023-05-04T19:48:36.438Z,16.06
2023-05-04T19:50:54.062Z,16.03
2023-05-04T19:53:12.317Z,15.96
2023-05-04T19:55:29.610Z,15.94
2023-05-04T19:57:47.917Z,15.91
2023-05-04T20:00:05.294Z,15.87
2023-05-04T20:02:22.814Z,15.82
2023-05-04T20:04:39.739Z,15.77
2023-05-04T20:06:57.582Z,15.67
2023-05-04T20:09:14.449Z,15.63
2023-05-04T20:11:31.736Z,15.58
2023-05-04T20:13:49.028Z,15.52
2023-05-04T20:16:06.361Z,15.49
2023-05-04T20:18:23.655Z,15.44
2023-05-04T20:20:40.731Z,15.39
2023-05-04T20:22:57.976Z,15.35
2023-05-04T20:25:15.226Z,15.31
2023-05-04T20:27:32.181Z,15.28
2023-05-04T20:29:49.105Z,15.25
2023-05-04T20:32:06.105Z,15.20
2023-05-04T20:34:23.443Z,15.14
2023-05-04T20:36:40.674Z,15.10
2023-05-04T20:38:58.005Z,15.06
2023-05-04T20:41:16.209Z,15.01
2023-05-04T20:43:33.125Z,14.99
2023-05-04T20:45:50.826Z,14.95
2023-05-04T20:48:09.159Z,14.90
2023-05-04T20:50:27.401Z,14.86
2023-05-04T20:52:44.698Z,14.81
2023-05-04T20:55:01.991Z,14.77
2023-05-04T20:57:19.715Z,14.73
2023-05-04T20:59:37.084Z,14.68
2023-05-04T21:01:54.462Z,14.65
2023-05-04T21:04:11.803Z,14.62
2023-05-04T21:06:29.151Z,14.61
2023-05-04T21:08:46.487Z,14.55
2023-05-04T21:11:04.757Z,14.51
2023-05-04T21:13:22.057Z,14.45
2023-05-04T21:15:39.379Z,14.42
2023-05-04T21:17:56.477Z,14.42
2023-05-04T21:20:14.410Z,14.39
2023-05-04T21:22:32.040Z,14.36
2023-05-04T21:24:50.283Z,14.33
2023-05-04T21:27:07.560Z,14.28
2023-05-04T21:29:24.871Z,14.25
2023-05-04T21:31:42.290Z,14.23
2023-05-04T21:33:59.375Z,14.20
2023-05-04T21:36:16.663Z,14.16
2023-05-04T21:38:33.652Z,14.14
2023-05-04T21:40:50.882Z,14.10
2023-05-04T21:43:08.150Z,14.09
2023-05-04T21:45:25.447Z,14.04
2023-05-04T21:47:42.797Z,14.01
2023-05-04T21:50:00.093Z,13.96
2023-05-04T21:52:17.410Z,13.92
2023-05-04T21:54:34.692Z,13.88
2023-05-04T21:56:51.601Z,13.80
2023-05-04T21:59:08.813Z,13.71
2023-05-04T22:01:26.183Z,13.65
2023-05-04T22:03:43.510Z,13.59
2023-05-04T22:06:00.834Z,13.53
2023-05-04T22:08:18.060Z,13.45
2023-05-04T22:10:35.392Z,13.37
2023-05-04T22:12:53.734Z,13.32
2023-05-04T22:15:11.051Z,13.27
2023-05-04T22:17:29.357Z,13.22
2023-05-04T22:19:46.734Z,13.18
2023-05-04T22:22:03.641Z,13.15
2023-05-04T22:24:20.964Z,13.12
2023-05-04T22:26:38.289Z,13.09
2023-05-04T22:28:55.523Z,13.05
2023-05-04T22:31:12.469Z,13.02
2023-05-04T22:33:29.763Z,12.97
2023-05-04T22:35:46.769Z,12.93
2023-05-04T22:38:05.059Z,12.88
2023-05-04T22:40:22.435Z,12.81
2023-05-04T22:42:39.750Z,12.73
2023-05-04T22:44:56.809Z,12.67
2023-05-04T22:47:14.112Z,12.60
2023-05-04T22:49:32.412Z,12.54
2023-05-04T22:51:49.687Z,12.48
2023-05-04T22:54:06.918Z,12.46
2023-05-04T22:56:24.154Z,12.45
2023-05-04T22:58:41.515Z,12.41
2023-05-04T23:00:59.165Z,12.37
2023-05-04T23:03:17.516Z,12.31
2023-05-04T23:05:35.897Z,12.26
2023-05-04T23:07:53.169Z,12.18
2023-05-04T23:10:10.521Z,12.13
2023-05-04T23:12:28.804Z,12.09
2023-05-04T23:14:46.101Z,12.05
2023-05-04T23:17:04.353Z,12.01
2023-05-04T23:19:21.245Z,11.97
2023-05-04T23:21:38.889Z,11.99
2023-05-04T23:23:56.168Z,11.98
2023-05-04T23:26:14.030Z,11.94
2023-05-04T23:28:32.313Z,11.89
2023-05-04T23:30:49.635Z,11.85
2023-05-04T23:33:08.080Z,11.83
2023-05-04T23:35:25.589Z,11.84
2023-05-04T23:37:43.898Z,11.82
2023-05-04T23:40:01.543Z,11.84
2023-05-04T23:42:19.517Z,11.84
2023-05-04T23:44:36.910Z,11.83
2023-05-04T23:46:54.652Z,11.83
2023-05-04T23:49:13.984Z,11.80
2023-05-04T23:51:31.266Z,11.79
2023-05-04T23:53:48.613Z,11.82
2023-05-04T23:56:05.935Z,11.81
2023-05-04T23:58:24.156Z,11.77
